Time;durP1;ratioP1;P1;durP2;ratioP2;P2;SDS_P1;SDS_P2;PMS_P1;PMS_P2;Temp;Humidity;BMP_temperature;BMP_pressure;BME280_temperature;BME280_humidity;BME280_pressure;Samples;Min_cycle;Max_cycle;Signal;HPM_P1;HPM_P2
2021/08/31 00:02:20;;;;;;;2.42;1.48;;;12.60;99.90;;;;;;4920305;29;20055;-93
2021/08/31 00:04:46;;;;;;;2.17;1.25;;;12.60;99.90;;;;;;4920674;29;20023;-94
2021/08/31 00:07:13;;;;;;;2.13;1.20;;;12.60;99.90;;;;;;4920919;29;20039;-94
2021/08/31 00:09:38;;;;;;;3.22;0.93;;;12.60;99.90;;;;;;4920274;29;20478;-93
2021/08/31 00:12:07;;;;;;;2.72;1.38;;;12.60;99.90;;;;;;4920766;29;20055;-93
2021/08/31 00:14:36;;;;;;;2.55;1.40;;;12.60;99.90;;;;;;4920235;29;20044;-93
2021/08/31 00:17:06;;;;;;;3.33;2.00;;;12.60;99.90;;;;;;4919515;29;20087;-93
2021/08/31 00:19:32;;;;;;;4.50;1.65;;;12.60;99.90;;;;;;4936274;29;20039;-93
2021/08/31 00:21:58;;;;;;;2.40;1.80;;;12.60;99.90;;;;;;4937333;29;20027;-94
2021/08/31 00:24:24;;;;;;;5.28;1.80;;;12.60;99.90;;;;;;4919322;29;20060;-92
2021/08/31 00:26:49;;;;;;;2.63;1.50;;;12.50;99.90;;;;;;4919621;29;20442;-92
2021/08/31 00:29:15;;;;;;;4.72;2.03;;;12.50;99.90;;;;;;4936788;29;20039;-92
2021/08/31 00:31:41;;;;;;;4.50;2.03;;;12.50;99.90;;;;;;4918912;29;20135;-93
2021/08/31 00:34:06;;;;;;;3.15;2.15;;;12.50;99.90;;;;;;4936564;29;20058;-91
2021/08/31 00:36:32;;;;;;;4.13;2.22;;;12.50;99.90;;;;;;4937074;29;20032;-93
2021/08/31 00:38:58;;;;;;;5.75;2.33;;;12.50;99.90;;;;;;4920896;29;20028;-93
2021/08/31 00:41:25;;;;;;;6.90;2.35;;;12.50;99.90;;;;;;4937752;29;20035;-93
2021/08/31 00:43:51;;;;;;;4.68;1.70;;;12.50;99.90;;;;;;4937568;29;20028;-91
2021/08/31 00:46:19;;;;;;;3.25;2.13;;;12.40;99.90;;;;;;4937543;29;20041;-91
2021/08/31 00:48:46;;;;;;;6.43;2.35;;;12.40;99.90;;;;;;4920529;29;20071;-91
2021/08/31 00:51:14;;;;;;;3.08;2.50;;;12.50;99.90;;;;;;4923595;29;20063;-91
2021/08/31 00:53:40;;;;;;;6.63;2.38;;;12.50;99.90;;;;;;4921003;29;20272;-92
2021/08/31 00:56:10;;;;;;;5.10;2.80;;;12.50;99.90;;;;;;4921852;29;20020;-92
2021/08/31 00:58:37;;;;;;;5.35;2.58;;;12.50;99.90;;;;;;4921010;29;20023;-92
2021/08/31 01:01:03;;;;;;;6.80;3.00;;;12.50;99.90;;;;;;4938363;29;20035;-92
2021/08/31 01:03:29;;;;;;;4.15;2.53;;;12.50;99.90;;;;;;4921484;29;20043;-92
2021/08/31 01:05:57;;;;;;;5.57;3.30;;;12.50;99.90;;;;;;4921921;29;20034;-92
2021/08/31 01:08:22;;;;;;;7.22;3.53;;;12.50;99.90;;;;;;4921995;29;20070;-91
2021/08/31 01:10:49;;;;;;;9.45;3.80;;;12.50;99.90;;;;;;4920725;29;20027;-92
2021/08/31 01:13:15;;;;;;;6.03;3.42;;;12.60;99.90;;;;;;4921804;29;20030;-92
2021/08/31 01:15:44;;;;;;;6.45;3.58;;;12.50;99.90;;;;;;4918788;29;20024;-91
2021/08/31 01:18:14;;;;;;;6.90;3.30;;;12.50;99.90;;;;;;4919079;29;20064;-92
2021/08/31 01:20:41;;;;;;;6.75;3.22;;;12.50;99.90;;;;;;4919256;29;20043;-92
2021/08/31 01:23:07;;;;;;;6.05;2.90;;;12.50;99.90;;;;;;4919350;29;20039;-93
2021/08/31 01:25:33;;;;;;;6.00;3.55;;;12.50;99.90;;;;;;4935628;29;20044;-92
2021/08/31 01:27:58;;;;;;;8.18;3.58;;;12.50;99.90;;;;;;4918886;29;20024;-92
2021/08/31 01:30:24;;;;;;;4.65;3.08;;;12.50;99.90;;;;;;4919016;29;20078;-92
2021/08/31 01:32:49;;;;;;;7.55;3.75;;;12.60;99.90;;;;;;4918392;29;20359;-92
2021/08/31 01:35:15;;;;;;;8.07;3.80;;;12.60;99.90;;;;;;4918862;29;20024;-93
2021/08/31 01:37:41;;;;;;;6.60;4.00;;;12.60;99.90;;;;;;4919117;29;20024;-91
2021/08/31 01:40:07;;;;;;;5.50;4.18;;;12.60;99.90;;;;;;4918996;29;20043;-92
2021/08/31 01:42:34;;;;;;;6.90;3.58;;;12.60;99.90;;;;;;4936129;29;20032;-93
2021/08/31 01:45:02;;;;;;;4.85;3.67;;;12.60;99.90;;;;;;4919467;29;20028;-92
2021/08/31 01:47:28;;;;;;;6.00;3.40;;;12.60;99.90;;;;;;4936615;29;20028;-92
2021/08/31 01:49:53;;;;;;;6.78;3.50;;;12.60;99.90;;;;;;4935593;29;20657;-92
2021/08/31 01:52:19;;;;;;;7.40;3.33;;;12.60;99.90;;;;;;4937209;29;20036;-92
2021/08/31 01:54:44;;;;;;;5.85;3.55;;;12.60;99.90;;;;;;4927887;29;20016;-92
2021/08/31 01:57:10;;;;;;;7.00;3.58;;;12.50;99.90;;;;;;4920099;29;20446;-91
2021/08/31 01:59:39;;;;;;;6.28;3.33;;;12.50;99.90;;;;;;4917971;29;20081;-92
2021/08/31 02:02:04;;;;;;;4.95;3.70;;;12.50;99.90;;;;;;4918053;29;20063;-92
2021/08/31 02:04:32;;;;;;;4.43;3.65;;;12.50;99.90;;;;;;4918894;29;20080;-92
2021/08/31 02:06:59;;;;;;;4.82;3.33;;;12.50;99.90;;;;;;4918756;29;20095;-93
2021/08/31 02:09:25;;;;;;;3.85;2.67;;;12.50;99.90;;;;;;4918763;29;20015;-93
2021/08/31 02:11:50;;;;;;;3.58;2.85;;;12.50;99.90;;;;;;4918746;29;20470;-90
2021/08/31 02:14:16;;;;;;;3.83;2.70;;;12.50;99.90;;;;;;4918261;29;20107;-91
2021/08/31 02:16:42;;;;;;;2.83;2.33;;;12.40;99.90;;;;;;4917171;29;20071;-92
2021/08/31 02:19:07;;;;;;;3.22;2.38;;;12.40;99.90;;;;;;4934862;29;20102;-92
2021/08/31 02:21:33;;;;;;;4.40;2.30;;;12.40;99.90;;;;;;4935515;29;20047;-93
2021/08/31 02:23:59;;;;;;;4.97;2.17;;;12.40;99.90;;;;;;4919549;29;20117;-94
2021/08/31 02:26:28;;;;;;;5.03;2.00;;;12.40;99.90;;;;;;4920961;29;20020;-94
2021/08/31 02:28:57;;;;;;;4.05;2.30;;;12.30;99.90;;;;;;4936291;29;20020;-94
2021/08/31 02:31:23;;;;;;;4.25;2.10;;;12.30;99.90;;;;;;4919492;29;20067;-93
2021/08/31 02:33:49;;;;;;;6.78;2.10;;;12.30;99.90;;;;;;4921316;29;20042;-93
2021/08/31 02:36:14;;;;;;;3.45;1.95;;;12.30;99.90;;;;;;4922793;29;20035;-92
2021/08/31 02:38:40;;;;;;;4.60;2.00;;;12.30;99.90;;;;;;4921871;29;20024;-94
2021/08/31 02:41:06;;;;;;;4.85;2.20;;;12.30;99.90;;;;;;4927837;29;20040;-92
2021/08/31 02:43:32;;;;;;;3.72;2.35;;;12.20;99.90;;;;;;4946343;29;20028;-92
2021/08/31 02:45:58;;;;;;;7.22;2.28;;;12.20;99.90;;;;;;4947750;29;20048;-93
2021/08/31 02:48:24;;;;;;;4.10;2.75;;;12.20;99.90;;;;;;4928633;29;20028;-93
2021/08/31 02:50:52;;;;;;;6.07;2.40;;;12.30;99.90;;;;;;4944099;29;20023;-93
2021/08/31 02:53:18;;;;;;;5.65;2.20;;;12.30;99.90;;;;;;4946204;29;20024;-94
2021/08/31 02:55:44;;;;;;;5.38;2.75;;;12.20;99.90;;;;;;4947107;29;20103;-94
2021/08/31 02:58:09;;;;;;;5.70;2.67;;;12.20;99.90;;;;;;4945456;29;21479;-93
2021/08/31 03:00:37;;;;;;;5.25;3.05;;;12.20;99.90;;;;;;4945311;29;20044;-93
2021/08/31 03:03:04;;;;;;;7.90;3.25;;;12.20;99.90;;;;;;4924830;29;20026;-93
2021/08/31 03:05:30;;;;;;;7.82;3.28;;;12.20;99.90;;;;;;4943714;29;20022;-93
2021/08/31 03:07:56;;;;;;;6.10;2.92;;;12.20;99.90;;;;;;4930560;29;20519;-95
2021/08/31 03:10:23;;;;;;;7.35;3.17;;;12.20;99.90;;;;;;4943836;29;20039;-94
2021/08/31 03:12:49;;;;;;;5.53;3.15;;;12.10;99.90;;;;;;4934423;29;20027;-94
2021/08/31 03:15:15;;;;;;;4.80;3.40;;;12.10;99.90;;;;;;4934440;29;20056;-93
2021/08/31 03:17:40;;;;;;;8.10;4.10;;;12.10;99.90;;;;;;4946933;29;20039;-94
2021/08/31 03:20:07;;;;;;;6.53;3.33;;;12.10;99.90;;;;;;4932788;29;20591;-93
2021/08/31 03:22:33;;;;;;;8.85;4.00;;;12.10;99.90;;;;;;4947021;29;20027;-93
2021/08/31 03:24:59;;;;;;;6.65;3.42;;;12.10;99.90;;;;;;4947878;29;20526;-92
2021/08/31 03:27:24;;;;;;;10.98;4.43;;;12.10;99.90;;;;;;4931181;29;20043;-93
2021/08/31 03:29:50;;;;;;;16.73;6.15;;;12.10;99.90;;;;;;4944023;29;20034;-93
2021/08/31 03:32:16;;;;;;;8.07;4.28;;;12.10;99.90;;;;;;4930413;29;20095;-93
2021/08/31 03:34:42;;;;;;;8.52;4.60;;;12.00;99.90;;;;;;4931812;29;20597;-93
2021/08/31 03:37:08;;;;;;;9.48;4.95;;;12.00;99.90;;;;;;4948559;29;20024;-94
2021/08/31 03:39:36;;;;;;;9.57;4.53;;;12.00;99.90;;;;;;4952358;29;20027;-93
2021/08/31 03:42:05;;;;;;;11.50;5.00;;;12.00;99.90;;;;;;4944765;29;20019;-93
2021/08/31 03:44:31;;;;;;;7.20;4.15;;;12.00;99.90;;;;;;4944737;29;20020;-93
2021/08/31 03:46:57;;;;;;;7.65;4.60;;;12.00;99.90;;;;;;4944936;29;20035;-93
2021/08/31 03:49:22;;;;;;;13.52;4.97;;;12.00;99.90;;;;;;4942747;29;20027;-92
2021/08/31 03:51:48;;;;;;;9.77;5.05;;;12.00;99.90;;;;;;4950818;29;20466;-93
2021/08/31 03:54:14;;;;;;;10.73;5.25;;;11.90;99.90;;;;;;4932324;29;20035;-93
2021/08/31 03:56:39;;;;;;;10.63;4.15;;;12.00;99.90;;;;;;4932472;29;20051;-94
2021/08/31 03:59:06;;;;;;;8.48;4.15;;;12.00;99.90;;;;;;4933715;29;20027;-93
2021/08/31 04:01:31;;;;;;;8.05;4.47;;;12.00;99.90;;;;;;4933876;29;20031;-93
2021/08/31 04:03:57;;;;;;;9.20;4.50;;;12.00;99.90;;;;;;4949565;29;20375;-93
2021/08/31 04:06:23;;;;;;;9.55;5.00;;;12.00;99.90;;;;;;4949172;29;20490;-93
2021/08/31 04:08:49;;;;;;;7.55;4.80;;;12.00;99.90;;;;;;4928956;29;20118;-92
2021/08/31 04:11:15;;;;;;;10.77;5.10;;;12.00;99.90;;;;;;4928472;29;20050;-94
2021/08/31 04:13:40;;;;;;;12.18;5.28;;;11.90;99.90;;;;;;4945638;29;20024;-94
2021/08/31 04:16:06;;;;;;;6.72;4.30;;;12.00;99.90;;;;;;4928720;29;20023;-93
2021/08/31 04:18:32;;;;;;;11.65;5.60;;;11.90;99.90;;;;;;4924174;29;20024;-94
2021/08/31 04:21:01;;;;;;;8.40;4.80;;;11.90;99.90;;;;;;4926897;29;20472;-94
2021/08/31 04:23:26;;;;;;;11.63;5.20;;;11.90;99.90;;;;;;4927195;29;20032;-94
2021/08/31 04:25:52;;;;;;;12.02;5.43;;;11.90;99.90;;;;;;4944781;29;20056;-93
2021/08/31 04:28:18;;;;;;;13.30;5.60;;;11.90;99.90;;;;;;4926890;29;20023;-93
2021/08/31 04:30:44;;;;;;;13.13;5.45;;;11.90;99.90;;;;;;4950093;29;20031;-94
2021/08/31 04:33:10;;;;;;;9.38;5.03;;;11.90;99.90;;;;;;4931777;29;20031;-93
2021/08/31 04:35:35;;;;;;;10.90;5.25;;;11.90;99.90;;;;;;4930187;29;20095;-93
2021/08/31 04:38:01;;;;;;;11.52;5.82;;;11.90;99.90;;;;;;4928659;29;20031;-93
2021/08/31 04:40:27;;;;;;;10.45;5.53;;;11.90;99.90;;;;;;4930517;29;20047;-93
2021/08/31 04:42:53;;;;;;;9.80;5.22;;;11.90;99.90;;;;;;4933683;29;20109;-93
2021/08/31 04:45:19;;;;;;;13.68;6.18;;;11.90;99.90;;;;;;4954087;29;20023;-93
2021/08/31 04:47:44;;;;;;;8.80;5.00;;;11.90;99.90;;;;;;4956323;29;20389;-93
2021/08/31 04:50:11;;;;;;;14.30;5.88;;;11.90;99.90;;;;;;4956095;29;20076;-95
2021/08/31 04:52:37;;;;;;;12.13;6.75;;;11.90;99.90;;;;;;4953221;29;20036;-94
2021/08/31 04:55:03;;;;;;;11.50;6.55;;;11.90;99.90;;;;;;4935211;29;20418;-95
2021/08/31 04:57:29;;;;;;;10.90;6.65;;;11.90;99.90;;;;;;4949427;29;20056;-94
2021/08/31 04:59:57;;;;;;;13.20;7.15;;;11.90;99.90;;;;;;4931116;29;20031;-94
2021/08/31 05:02:23;;;;;;;11.25;6.53;;;11.90;99.90;;;;;;4933246;29;20036;-95
2021/08/31 05:04:48;;;;;;;11.77;5.70;;;11.80;99.90;;;;;;4931660;29;20024;-96
2021/08/31 05:07:15;;;;;;;14.68;6.10;;;11.80;99.90;;;;;;4931033;29;20020;-95
2021/08/31 05:09:41;;;;;;;11.52;5.38;;;11.80;99.90;;;;;;4930530;29;20496;-94
2021/08/31 05:12:07;;;;;;;10.80;5.80;;;11.80;99.90;;;;;;4948528;29;20111;-94
2021/08/31 05:14:36;;;;;;;9.55;5.75;;;11.80;99.90;;;;;;4949640;29;20031;-94
2021/08/31 05:17:03;;;;;;;11.60;5.82;;;11.80;99.90;;;;;;4931108;29;20036;-95
2021/08/31 05:19:32;;;;;;;10.02;5.97;;;11.80;99.90;;;;;;4946634;29;20103;-94
2021/08/31 05:22:01;;;;;;;11.53;6.23;;;11.80;99.90;;;;;;4948392;29;20495;-95
2021/08/31 05:24:29;;;;;;;13.95;8.07;;;11.80;99.90;;;;;;4915881;29;20118;-93
2021/08/31 05:26:59;;;;;;;14.95;8.65;;;11.80;99.90;;;;;;4931874;29;20036;-94
2021/08/31 05:29:25;;;;;;;14.88;8.57;;;11.80;99.90;;;;;;4928546;29;20055;-94
2021/08/31 05:31:52;;;;;;;13.55;7.97;;;11.80;99.90;;;;;;4929503;29;20027;-94
2021/08/31 05:34:18;;;;;;;15.52;7.90;;;11.80;99.90;;;;;;4946764;29;20095;-94
2021/08/31 05:36:45;;;;;;;15.30;7.05;;;11.80;99.90;;;;;;4948232;29;20038;-94
2021/08/31 05:39:11;;;;;;;12.65;7.15;;;11.80;99.90;;;;;;4929998;29;20050;-95
2021/08/31 05:41:40;;;;;;;13.68;7.45;;;11.80;99.90;;;;;;4930534;29;20067;-94
2021/08/31 05:44:06;;;;;;;13.40;8.85;;;11.80;99.90;;;;;;4928373;29;20367;-94
2021/08/31 05:46:33;;;;;;;14.52;6.63;;;11.90;99.90;;;;;;4947899;29;20028;-94
2021/08/31 05:48:59;;;;;;;10.45;6.40;;;11.90;99.90;;;;;;4932232;29;20545;-95
2021/08/31 05:51:28;;;;;;;14.02;5.68;;;11.90;99.90;;;;;;4928078;29;20039;-93
2021/08/31 05:53:55;;;;;;;15.18;6.90;;;11.90;99.90;;;;;;4929369;29;20027;-93
2021/08/31 05:56:21;;;;;;;13.93;7.00;;;11.90;99.90;;;;;;4929499;29;20027;-95
2021/08/31 05:58:47;;;;;;;10.80;6.20;;;11.90;99.90;;;;;;4931820;29;20032;-94
2021/08/31 06:01:13;;;;;;;11.23;6.18;;;11.90;99.90;;;;;;4928285;29;20042;-94
2021/08/31 06:03:38;;;;;;;11.73;6.30;;;11.90;99.90;;;;;;4929412;29;20099;-94
2021/08/31 06:06:04;;;;;;;17.67;6.45;;;11.90;99.90;;;;;;4929475;29;20062;-94
2021/08/31 06:08:32;;;;;;;13.63;6.72;;;12.00;99.90;;;;;;4944167;29;20079;-95
2021/08/31 06:10:58;;;;;;;10.75;5.03;;;12.00;99.90;;;;;;4928494;29;20024;-94
2021/08/31 06:13:24;;;;;;;9.38;5.72;;;12.00;99.90;;;;;;4930489;29;20024;-93
2021/08/31 06:15:50;;;;;;;12.45;5.65;;;12.00;99.90;;;;;;4930213;29;20027;-94
2021/08/31 06:18:16;;;;;;;9.93;5.10;;;12.00;99.90;;;;;;4947259;29;20019;-96
2021/08/31 06:20:42;;;;;;;9.68;4.28;;;12.00;99.90;;;;;;4928115;29;20082;-94
2021/08/31 06:23:07;;;;;;;8.30;4.65;;;11.90;99.90;;;;;;4928134;29;20023;-93
2021/08/31 06:25:35;;;;;;;11.00;4.70;;;11.90;99.90;;;;;;4929406;29;20062;-95
2021/08/31 06:28:00;;;;;;;10.40;5.13;;;12.00;99.90;;;;;;4933759;29;20119;-94
2021/08/31 06:30:26;;;;;;;7.43;4.65;;;11.90;99.90;;;;;;4935307;29;20036;-94
2021/08/31 06:32:52;;;;;;;9.55;5.50;;;11.90;99.90;;;;;;4952411;29;20111;-94
2021/08/31 06:35:18;;;;;;;10.38;5.20;;;12.00;99.90;;;;;;4949823;29;20024;-93
2021/08/31 06:37:44;;;;;;;10.23;5.40;;;12.00;99.90;;;;;;4934267;29;20027;-94
2021/08/31 06:40:11;;;;;;;9.55;5.45;;;12.00;99.90;;;;;;4951581;29;20044;-95
2021/08/31 06:42:37;;;;;;;9.77;4.93;;;12.00;99.90;;;;;;4952123;29;20031;-94
2021/08/31 06:45:03;;;;;;;10.10;4.80;;;12.00;99.90;;;;;;4946598;29;20058;-94
2021/08/31 06:47:29;;;;;;;10.90;4.45;;;12.00;99.90;;;;;;4938161;29;20088;-96
2021/08/31 06:49:59;;;;;;;12.52;4.00;;;12.10;99.90;;;;;;4927615;29;20051;-94
2021/08/31 06:52:25;;;;;;;7.50;4.68;;;12.10;99.90;;;;;;4928042;29;20490;-94
2021/08/31 06:54:51;;;;;;;8.40;3.70;;;12.10;99.90;;;;;;4925816;29;20078;-94
2021/08/31 06:57:17;;;;;;;6.25;3.83;;;12.10;99.90;;;;;;4922146;29;20032;-94
2021/08/31 06:59:46;;;;;;;5.30;3.90;;;12.10;99.90;;;;;;4925682;29;20393;-93
2021/08/31 07:02:11;;;;;;;9.10;4.22;;;12.10;99.90;;;;;;4943942;29;20592;-92
2021/08/31 07:04:38;;;;;;;5.20;3.40;;;12.10;99.90;;;;;;4942546;29;20072;-93
2021/08/31 07:07:11;;;;;;;6.53;3.15;;;12.10;99.90;;;;;;4929237;29;20425;-94
2021/08/31 07:09:37;;;;;;;7.15;3.53;;;12.10;99.90;;;;;;4927860;29;20393;-94
2021/08/31 07:12:04;;;;;;;5.07;2.80;;;12.20;99.90;;;;;;4927477;29;20023;-93
2021/08/31 07:14:29;;;;;;;6.60;3.10;;;12.20;99.90;;;;;;4926803;29;20024;-94
2021/08/31 07:16:55;;;;;;;7.38;3.58;;;12.20;99.90;;;;;;4927452;29;20498;-92
2021/08/31 07:19:23;;;;;;;7.22;3.75;;;12.30;99.90;;;;;;4946486;29;20027;-94
2021/08/31 07:21:50;;;;;;;6.60;3.65;;;12.30;99.90;;;;;;4937204;29;20028;-93
2021/08/31 07:24:16;;;;;;;8.60;3.90;;;12.40;99.90;;;;;;4920654;29;20036;-93
2021/08/31 07:26:42;;;;;;;9.98;4.40;;;12.40;99.90;;;;;;4940162;29;20039;-94
2021/08/31 07:29:08;;;;;;;7.63;4.20;;;12.40;99.90;;;;;;4933315;29;20091;-91
2021/08/31 07:31:34;;;;;;;5.20;3.63;;;12.40;99.90;;;;;;4936493;29;20497;-92
2021/08/31 07:33:59;;;;;;;5.13;3.30;;;12.50;99.90;;;;;;4920039;29;20024;-92
2021/08/31 07:36:28;;;;;;;7.40;3.20;;;12.50;99.90;;;;;;4925497;29;20024;-93
2021/08/31 07:38:55;;;;;;;5.65;3.47;;;12.60;99.90;;;;;;4928828;29;20028;-92
2021/08/31 07:41:22;;;;;;;9.45;3.40;;;12.60;99.90;;;;;;4942452;29;20032;-94
2021/08/31 07:43:49;;;;;;;5.90;3.20;;;12.60;99.90;;;;;;4922388;29;20088;-96
2021/08/31 07:46:15;;;;;;;5.28;2.72;;;12.70;99.90;;;;;;4918839;29;20054;-93
2021/08/31 07:48:43;;;;;;;5.03;2.40;;;12.70;99.90;;;;;;4926198;29;20037;-93
2021/08/31 07:51:09;;;;;;;5.22;2.55;;;12.80;99.90;;;;;;4945625;29;20154;-94
2021/08/31 07:53:34;;;;;;;4.07;2.80;;;12.90;99.90;;;;;;4916023;29;20060;-93
2021/08/31 07:56:00;;;;;;;6.10;2.70;;;13.00;99.90;;;;;;4913979;29;20521;-93
2021/08/31 07:58:26;;;;;;;4.45;2.85;;;13.10;99.90;;;;;;4922503;29;20028;-93
2021/08/31 08:00:53;;;;;;;4.60;2.90;;;13.20;99.90;;;;;;4942772;29;20099;-94
2021/08/31 08:03:19;;;;;;;4.88;2.70;;;13.30;99.90;;;;;;4917872;29;20024;-95
2021/08/31 08:05:46;;;;;;;4.32;2.55;;;13.30;99.90;;;;;;4919780;29;20035;-95
2021/08/31 08:08:13;;;;;;;4.03;2.38;;;13.40;99.90;;;;;;4917884;29;20027;-94
2021/08/31 08:10:39;;;;;;;4.38;2.50;;;13.40;99.90;;;;;;4930040;29;20044;-93
2021/08/31 08:13:05;;;;;;;7.63;2.90;;;13.50;99.90;;;;;;4922559;29;20027;-94
2021/08/31 08:15:31;;;;;;;6.43;2.72;;;13.50;99.90;;;;;;4922986;29;20035;-91
2021/08/31 08:17:57;;;;;;;5.15;3.35;;;13.50;99.90;;;;;;4932159;29;20044;-92
2021/08/31 08:20:23;;;;;;;7.28;3.30;;;13.50;99.90;;;;;;4931190;29;20040;-92
2021/08/31 08:22:49;;;;;;;5.75;3.70;;;13.50;99.90;;;;;;4921555;29;20039;-92
2021/08/31 08:25:15;;;;;;;7.10;4.05;;;13.50;99.90;;;;;;4917147;29;20052;-92
2021/08/31 08:27:41;;;;;;;7.30;4.22;;;13.60;99.90;;;;;;4943022;29;20028;-92
2021/08/31 08:30:07;;;;;;;8.10;3.47;;;13.60;99.90;;;;;;4919393;29;20056;-92
2021/08/31 08:32:33;;;;;;;5.68;3.70;;;13.60;99.90;;;;;;4924526;29;20099;-92
2021/08/31 08:34:59;;;;;;;5.65;3.72;;;13.70;99.90;;;;;;4917451;29;20398;-93
2021/08/31 08:37:25;;;;;;;7.20;3.38;;;13.70;99.90;;;;;;4910230;29;20058;-91
2021/08/31 08:39:52;;;;;;;6.78;3.40;;;13.80;99.90;;;;;;4927757;29;20154;-92
2021/08/31 08:42:18;;;;;;;5.30;3.40;;;13.80;99.90;;;;;;4915899;29;20032;-92
2021/08/31 08:44:44;;;;;;;6.13;3.30;;;13.90;99.90;;;;;;4911950;29;20088;-92
2021/08/31 08:47:11;;;;;;;7.18;3.70;;;13.90;99.90;;;;;;4897262;29;20054;-90
2021/08/31 08:49:43;;;;;;;8.43;4.60;;;13.90;99.90;;;;;;4915325;29;20513;-91
2021/08/31 08:52:09;;;;;;;7.18;4.18;;;13.90;99.90;;;;;;4918504;29;20490;-92
2021/08/31 08:54:35;;;;;;;7.90;4.18;;;13.80;99.90;;;;;;4929628;29;20032;-93
2021/08/31 08:57:01;;;;;;;6.20;4.32;;;13.80;99.90;;;;;;4908911;29;20031;-92
2021/08/31 08:59:26;;;;;;;5.85;3.35;;;13.80;99.90;;;;;;4906498;29;20083;-92
2021/08/31 09:01:55;;;;;;;4.68;2.80;;;13.90;99.90;;;;;;4907841;29;20040;-93
2021/08/31 09:04:45;;;;;;;3.40;2.05;;;13.90;99.90;;;;;;4904724;29;20027;-93
2021/08/31 09:07:23;;;;;;;4.53;2.50;;;14.10;99.90;;;;;;4916288;29;20115;-90
2021/08/31 09:09:51;;;;;;;5.55;2.30;;;14.20;99.90;;;;;;4923152;29;20024;-91
2021/08/31 09:12:34;;;;;;;2.35;1.90;;;14.20;99.90;;;;;;4905218;29;20028;-91
2021/08/31 09:15:23;;;;;;;3.67;1.80;;;14.30;99.90;;;;;;4905274;29;20032;-91
2021/08/31 09:18:04;;;;;;;2.10;1.70;;;14.40;99.90;;;;;;4903576;29;20047;-90
2021/08/31 09:20:34;;;;;;;2.78;1.85;;;14.40;99.90;;;;;;4906712;29;20039;-92
2021/08/31 09:23:00;;;;;;;3.83;2.05;;;14.40;99.90;;;;;;4903734;29;20028;-90
2021/08/31 09:25:40;;;;;;;5.95;2.50;;;14.50;99.90;;;;;;4902125;29;20048;-91
2021/08/31 09:28:31;;;;;;;6.25;2.60;;;14.50;99.90;;;;;;4904767;29;20031;-90
2021/08/31 09:31:05;;;;;;;5.00;3.00;;;14.60;99.90;;;;;;4902101;29;20047;-90
2021/08/31 09:33:39;;;;;;;3.65;2.50;;;14.60;99.90;;;;;;4919076;29;20102;-93
2021/08/31 09:36:22;;;;;;;5.53;2.50;;;14.60;99.90;;;;;;4910411;29;20039;-92
2021/08/31 09:38:55;;;;;;;5.00;2.10;;;14.60;99.90;;;;;;4921181;29;20027;-90
2021/08/31 09:41:37;;;;;;;5.75;2.00;;;14.60;99.90;;;;;;4921251;29;20079;-90
2021/08/31 09:44:19;;;;;;;1.92;1.40;;;14.70;99.90;;;;;;4907060;29;20079;-90
2021/08/31 09:46:59;;;;;;;3.55;1.70;;;14.70;99.90;;;;;;4910850;29;20028;-92
2021/08/31 09:49:37;;;;;;;2.10;1.50;;;14.70;99.90;;;;;;4902485;29;20123;-92
2021/08/31 09:52:09;;;;;;;5.97;2.17;;;14.70;99.90;;;;;;4907741;29;20028;-90
2021/08/31 09:54:40;;;;;;;3.35;2.20;;;14.70;99.90;;;;;;4904073;29;20084;-91
2021/08/31 09:57:36;;;;;;;7.00;2.67;;;14.70;99.90;;;;;;4905733;29;20056;-92
2021/08/31 10:00:18;;;;;;;11.02;3.35;;;14.70;99.90;;;;;;4905109;29;20036;-92
2021/08/31 10:02:48;;;;;;;5.63;3.25;;;14.80;99.90;;;;;;4901585;29;20032;-94
2021/08/31 10:05:14;;;;;;;3.80;2.70;;;14.80;99.90;;;;;;4906350;29;20033;-93
2021/08/31 10:07:43;;;;;;;5.07;3.17;;;14.90;99.90;;;;;;4905084;29;20035;-95
2021/08/31 10:10:14;;;;;;;7.22;3.22;;;14.90;99.90;;;;;;4922443;29;20025;-94
2021/08/31 10:12:40;;;;;;;6.25;2.80;;;14.90;99.90;;;;;;4913011;29;20027;-94
2021/08/31 10:15:09;;;;;;;5.53;2.60;;;14.90;99.90;;;;;;4908893;29;20493;-93
2021/08/31 10:17:36;;;;;;;5.90;2.50;;;15.00;99.90;;;;;;4905938;29;20482;-93
2021/08/31 10:20:05;;;;;;;6.75;2.67;;;15.00;99.90;;;;;;4908445;29;20032;-94
2021/08/31 10:22:35;;;;;;;5.50;2.72;;;15.20;99.90;;;;;;4908256;29;20035;-93
2021/08/31 10:25:04;;;;;;;5.30;3.00;;;15.40;99.90;;;;;;4907948;29;20048;-92
2021/08/31 10:27:36;;;;;;;6.13;2.75;;;15.50;99.90;;;;;;4909873;29;20107;-94
2021/08/31 10:30:20;;;;;;;4.70;2.58;;;15.70;99.90;;;;;;4922553;29;20063;-92
2021/08/31 10:32:57;;;;;;;7.25;2.60;;;15.80;99.90;;;;;;4923877;29;20028;-94
2021/08/31 10:35:35;;;;;;;6.97;2.03;;;16.00;99.90;;;;;;4931264;29;20128;-93
2021/08/31 10:38:05;;;;;;;6.53;2.33;;;16.10;99.90;;;;;;4915847;29;20444;-94
2021/08/31 10:40:47;;;;;;;7.43;3.22;;;16.10;99.90;;;;;;4933349;29;20040;-93
2021/08/31 10:43:20;;;;;;;8.80;3.25;;;16.10;99.90;;;;;;4910984;29;20040;-92
2021/08/31 10:46:06;;;;;;;4.65;2.83;;;16.10;99.90;;;;;;4914429;29;20032;-92
2021/08/31 10:48:35;;;;;;;6.88;2.90;;;16.10;99.90;;;;;;4910890;29;20051;-90
2021/08/31 10:51:09;;;;;;;11.63;3.42;;;16.10;99.90;;;;;;4911934;29;20038;-92
2021/08/31 10:53:43;;;;;;;6.40;3.55;;;16.10;99.90;;;;;;4935504;29;20023;-92
2021/08/31 10:56:25;;;;;;;7.55;3.72;;;16.10;99.90;;;;;;4912537;29;20032;-91
2021/08/31 10:59:02;;;;;;;8.90;3.95;;;16.30;99.90;;;;;;4912793;29;20031;-92
2021/08/31 11:01:38;;;;;;;7.47;3.28;;;16.50;99.90;;;;;;4912244;29;20098;-93
2021/08/31 11:04:27;;;;;;;5.93;3.13;;;16.60;99.90;;;;;;4911512;29;20028;-92
2021/08/31 11:06:58;;;;;;;8.57;3.88;;;16.70;99.90;;;;;;4914140;29;20079;-93
2021/08/31 11:09:25;;;;;;;4.95;3.10;;;16.70;99.90;;;;;;4924761;29;20078;-92
2021/08/31 11:12:12;;;;;;;9.57;3.22;;;16.70;99.90;;;;;;4906527;29;20044;-92
2021/08/31 11:14:44;;;;;;;7.30;3.53;;;16.70;99.90;;;;;;4906353;29;20052;-92
2021/08/31 11:17:10;;;;;;;6.15;3.33;;;16.70;99.90;;;;;;4921584;29;20502;-92
2021/08/31 11:19:36;;;;;;;8.50;3.22;;;16.60;99.90;;;;;;4906115;29;20029;-92
2021/08/31 11:22:02;;;;;;;3.78;2.78;;;16.50;99.90;;;;;;4909244;29;20071;-94
2021/08/31 11:24:27;;;;;;;9.63;3.90;;;16.40;99.90;;;;;;4913434;29;20467;-95
2021/08/31 11:27:03;;;;;;;7.28;3.42;;;16.40;99.90;;;;;;4933988;29;20016;-95
2021/08/31 11:29:29;;;;;;;9.98;3.45;;;16.40;99.90;;;;;;4911084;29;20075;-95
2021/08/31 11:32:19;;;;;;;9.50;3.25;;;16.30;99.90;;;;;;4932527;29;20028;-95
2021/08/31 11:35:00;;;;;;;9.40;3.80;;;16.30;99.90;;;;;;4929592;29;20032;-96
2021/08/31 11:37:26;;;;;;;6.90;3.60;;;16.20;99.90;;;;;;4918376;29;20533;-95
2021/08/31 11:39:59;;;;;;;7.50;3.53;;;16.20;99.90;;;;;;4913124;29;20051;-96
2021/08/31 11:42:25;;;;;;;6.57;3.67;;;16.20;99.90;;;;;;4905710;29;20042;-96
2021/08/31 11:44:58;;;;;;;9.27;3.50;;;16.20;99.90;;;;;;4921732;29;20032;-94
2021/08/31 11:47:24;;;;;;;6.45;3.30;;;16.20;99.90;;;;;;4905019;29;20486;-95
2021/08/31 11:49:49;;;;;;;8.02;2.95;;;16.20;99.90;;;;;;4905304;29;20039;-93
2021/08/31 11:52:18;;;;;;;6.65;2.90;;;16.20;99.90;;;;;;4905219;29;20032;-93
2021/08/31 11:54:56;;;;;;;6.18;3.17;;;16.10;99.90;;;;;;4905099;29;20032;-95
2021/08/31 11:57:32;;;;;;;7.47;3.40;;;16.00;99.90;;;;;;4937515;29;20458;-95
2021/08/31 11:59:58;;;;;;;8.80;3.35;;;16.00;99.90;;;;;;4940842;29;20031;-94
2021/08/31 12:02:29;;;;;;;8.68;4.28;;;15.90;99.90;;;;;;4927163;29;20031;-95
2021/08/31 12:04:58;;;;;;;7.57;4.10;;;15.80;99.90;;;;;;4946050;29;20035;-96
2021/08/31 12:07:29;;;;;;;10.40;4.18;;;15.70;99.90;;;;;;4933510;29;20441;-95
2021/08/31 12:10:03;;;;;;;8.50;3.45;;;15.80;99.90;;;;;;4954385;29;20004;-96
2021/08/31 12:12:29;;;;;;;10.65;3.90;;;15.80;99.90;;;;;;4929296;29;20032;-94
2021/08/31 12:14:55;;;;;;;8.13;3.45;;;15.70;99.90;;;;;;4913691;29;20020;-93
2021/08/31 12:17:33;;;;;;;6.95;3.25;;;15.70;99.90;;;;;;4913980;29;20375;-93
2021/08/31 12:20:24;;;;;;;8.23;3.70;;;15.70;99.90;;;;;;4912661;29;20419;-94
2021/08/31 12:22:51;;;;;;;7.72;3.50;;;15.80;99.90;;;;;;4918694;29;20052;-95
2021/08/31 12:25:19;;;;;;;9.60;3.10;;;15.90;99.90;;;;;;4910975;29;20502;-95
2021/08/31 12:27:53;;;;;;;8.38;3.75;;;15.90;99.90;;;;;;4915273;29;20024;-92
2021/08/31 12:30:40;;;;;;;8.18;3.15;;;16.00;99.90;;;;;;4913975;29;20024;-93
2021/08/31 12:33:08;;;;;;;6.68;2.75;;;16.10;99.90;;;;;;4914128;29;20020;-93
2021/08/31 12:35:43;;;;;;;7.78;3.60;;;16.20;99.90;;;;;;4914270;29;20024;-95
2021/08/31 12:38:21;;;;;;;9.10;3.00;;;16.30;99.90;;;;;;4913771;29;20067;-93
2021/08/31 12:40:50;;;;;;;7.35;2.88;;;16.30;99.90;;;;;;4918740;29;20046;-93
2021/08/31 12:43:16;;;;;;;5.90;3.00;;;16.40;99.90;;;;;;4923981;29;20426;-95
2021/08/31 12:45:49;;;;;;;7.40;3.42;;;16.50;99.90;;;;;;4924507;29;20043;-93
2021/08/31 12:48:16;;;;;;;5.82;3.42;;;16.40;99.90;;;;;;4923593;29;20179;-95
2021/08/31 12:50:55;;;;;;;8.73;3.80;;;16.40;99.90;;;;;;4923417;29;20121;-92
2021/08/31 12:53:34;;;;;;;7.78;3.30;;;16.40;99.90;;;;;;4922975;29;20024;-94